Time;durP1;ratioP1;P1;durP2;ratioP2;P2;SDS_P1;SDS_P2;PMS_P1;PMS_P2;Temp;Humidity;BMP_temperature;BMP_pressure;BME280_temperature;BME280_humidity;BME280_pressure;Samples;Min_cycle;Max_cycle;Signal;HPM_P1;HPM_P2
2020/12/04 00:00:10;;;;;;;30.23;16.35;;;4.80;64.60;;;;;;4966427;28;20125;-78
2020/12/04 00:02:36;;;;;;;21.58;11.48;;;4.80;64.80;;;;;;4982413;28;20101;-78
2020/12/04 00:05:01;;;;;;;;;;;4.80;64.90;;;;;;4966506;28;20081;-79
2020/12/04 00:07:28;;;;;;;24.80;11.98;;;4.80;65.40;;;;;;4965310;28;19906;-78
2020/12/04 00:09:54;;;;;;;41.55;18.55;;;4.80;65.60;;;;;;4982845;28;20045;-78
2020/12/04 00:12:19;;;;;;;;;;;4.80;65.70;;;;;;4966950;28;20109;-78
2020/12/04 00:14:45;;;;;;;30.75;16.40;;;4.80;66.00;;;;;;4983781;28;20430;-78
2020/12/04 00:17:10;;;;;;;;;;;4.80;65.90;;;;;;4966696;28;20407;-80
2020/12/04 00:19:36;;;;;;;22.52;12.13;;;4.80;65.70;;;;;;4983112;28;19930;-78
2020/12/04 00:22:02;;;;;;;;;;;4.90;65.50;;;;;;4987315;28;20027;-79
2020/12/04 00:24:31;;;;;;;21.85;11.40;;;4.90;65.20;;;;;;4984431;28;19906;-79
2020/12/04 00:26:58;;;;;;;26.27;12.18;;;5.00;65.20;;;;;;4967544;28;20035;-79
2020/12/04 00:29:26;;;;;;;25.45;13.07;;;5.00;65.30;;;;;;4967301;28;20041;-79
2020/12/04 00:31:53;;;;;;;23.17;11.60;;;5.00;64.90;;;;;;4984971;28;20023;-79
2020/12/04 00:34:19;;;;;;;21.08;12.18;;;5.10;65.10;;;;;;4984803;28;20035;-78
2020/12/04 00:36:46;;;;;;;23.35;11.77;;;5.10;65.30;;;;;;4966765;28;20026;-78
2020/12/04 00:39:12;;;;;;;22.00;11.18;;;5.10;66.00;;;;;;4965904;28;20059;-78
2020/12/04 00:41:37;;;;;;;;;;;5.10;65.60;;;;;;4967286;28;20090;-78
2020/12/04 00:44:03;;;;;;;22.58;10.25;;;5.10;65.70;;;;;;4966536;28;19941;-78
2020/12/04 00:46:29;;;;;;;23.02;11.02;;;5.20;65.50;;;;;;4986971;28;20050;-79
2020/12/04 00:48:54;;;;;;;;;;;5.20;65.30;;;;;;4983638;28;20514;-78
2020/12/04 00:51:20;;;;;;;24.33;14.20;;;5.30;65.00;;;;;;4989491;28;19918;-79
2020/12/04 00:53:45;;;;;;;;;;;5.30;65.00;;;;;;4981796;28;20127;-80
2020/12/04 00:56:11;;;;;;;18.95;10.13;;;5.30;65.40;;;;;;4983308;28;19901;-79
2020/12/04 00:58:37;;;;;;;;;;;5.30;65.30;;;;;;4999939;28;20050;-80
2020/12/04 01:01:03;;;;;;;19.58;10.10;;;5.50;64.90;;;;;;4981412;28;19894;-80
2020/12/04 01:03:29;;;;;;;23.20;12.93;;;5.60;64.40;;;;;;4980865;28;20034;-79
2020/12/04 01:05:54;;;;;;;;;;;5.60;64.30;;;;;;4997838;28;20011;-79
2020/12/04 01:08:20;;;;;;;19.58;11.35;;;5.60;64.20;;;;;;4998731;28;19918;-80
2020/12/04 01:10:46;;;;;;;22.15;10.75;;;5.70;64.10;;;;;;4978895;28;20094;-79
2020/12/04 01:13:12;;;;;;;20.50;11.32;;;5.60;63.80;;;;;;4995384;28;20023;-79
2020/12/04 01:15:38;;;;;;;;;;;5.60;64.00;;;;;;4982277;28;20011;-79
2020/12/04 01:18:04;;;;;;;18.60;11.10;;;5.60;64.00;;;;;;4998331;28;19925;-79
2020/12/04 01:20:30;;;;;;;18.42;10.27;;;5.70;63.80;;;;;;4998637;28;20458;-79
2020/12/04 01:22:55;;;;;;;20.83;11.40;;;5.60;63.70;;;;;;4980688;28;20015;-79
2020/12/04 01:25:21;;;;;;;;;;;5.60;64.00;;;;;;4998786;28;20041;-78
2020/12/04 01:27:47;;;;;;;33.83;18.85;;;5.60;63.90;;;;;;4980255;28;19913;-79
2020/12/04 01:30:12;;;;;;;28.33;10.30;;;5.50;63.80;;;;;;4996508;28;20070;-79
2020/12/04 01:32:38;;;;;;;24.23;14.05;;;5.60;63.50;;;;;;4980675;28;20038;-79
2020/12/04 01:35:04;;;;;;;;;;;5.60;63.20;;;;;;4982473;28;20034;-79
2020/12/04 01:37:30;;;;;;;23.83;13.60;;;5.70;62.70;;;;;;4997464;28;19910;-79
2020/12/04 01:39:56;;;;;;;;;;;5.70;62.50;;;;;;4981795;28;20023;-79
2020/12/04 01:42:21;;;;;;;26.85;10.40;;;5.70;62.60;;;;;;4981156;28;19894;-79
2020/12/04 01:44:47;;;;;;;;;;;5.70;63.10;;;;;;4997932;28;20030;-78
2020/12/04 01:47:16;;;;;;;19.55;10.65;;;5.70;62.10;;;;;;4997140;28;19914;-79
2020/12/04 01:49:41;;;;;;;22.48;10.85;;;5.70;61.80;;;;;;4994031;28;20035;-79
2020/12/04 01:52:07;;;;;;;;;;;5.70;62.30;;;;;;4990566;28;20106;-79
2020/12/04 01:54:33;;;;;;;23.23;10.27;;;5.70;62.50;;;;;;4980977;28;19981;-80
2020/12/04 01:57:01;;;;;;;19.63;10.85;;;5.70;62.50;;;;;;4982759;28;20098;-79
2020/12/04 01:59:27;;;;;;;16.58;10.32;;;5.70;62.60;;;;;;4998787;28;20019;-79
2020/12/04 02:02:00;;;;;;;;;;;5.70;63.00;;;;;;4983017;28;20014;-80
2020/12/04 02:04:26;;;;;;;22.27;10.95;;;5.70;63.10;;;;;;4981497;28;19893;-79
2020/12/04 02:07:02;;;;;;;;;;;5.60;63.40;;;;;;4982423;28;20095;-79
2020/12/04 02:09:35;;;;;;;20.85;11.90;;;5.60;63.70;;;;;;4993521;28;19925;-79
2020/12/04 02:12:04;;;;;;;25.20;12.90;;;5.60;63.80;;;;;;4995398;28;20043;-77
2020/12/04 02:14:31;;;;;;;21.73;11.55;;;5.50;64.10;;;;;;4990301;28;20023;-79
2020/12/04 02:17:04;;;;;;;27.98;14.27;;;5.40;64.70;;;;;;4991184;28;20081;-79
2020/12/04 02:19:41;;;;;;;23.88;12.60;;;5.50;64.50;;;;;;4976773;28;20030;-79
2020/12/04 02:22:09;;;;;;;27.90;13.63;;;5.40;64.80;;;;;;4976998;28;20038;-79
2020/12/04 02:24:35;;;;;;;24.25;11.32;;;5.40;65.10;;;;;;4994385;28;20030;-79
2020/12/04 02:27:01;;;;;;;25.55;12.48;;;5.30;65.30;;;;;;4976483;28;20039;-79
2020/12/04 02:29:27;;;;;;;;;;;5.20;65.50;;;;;;4981738;28;20049;-79
2020/12/04 02:31:53;;;;;;;22.55;11.02;;;5.10;65.70;;;;;;4997351;28;19894;-80
2020/12/04 02:34:19;;;;;;;;;;;5.10;65.60;;;;;;4981041;28;20019;-79
2020/12/04 02:36:46;;;;;;;21.08;11.27;;;5.20;65.50;;;;;;4978327;28;19914;-79
2020/12/04 02:39:12;;;;;;;18.95;10.63;;;5.10;65.50;;;;;;4969385;28;20034;-79
2020/12/04 02:41:44;;;;;;;27.13;13.43;;;5.20;65.50;;;;;;4969374;28;20124;-79
2020/12/04 02:44:10;;;;;;;29.35;15.68;;;5.10;65.70;;;;;;4990809;28;20030;-78
2020/12/04 02:46:35;;;;;;;;;;;5.00;66.20;;;;;;4978052;28;20030;-79
2020/12/04 02:49:01;;;;;;;22.98;10.85;;;5.00;66.40;;;;;;4994168;28;19914;-80
2020/12/04 02:51:26;;;;;;;21.10;10.98;;;5.00;66.60;;;;;;4981712;28;20037;-79
2020/12/04 02:53:52;;;;;;;21.45;11.45;;;4.90;66.60;;;;;;4993884;28;20030;-78
2020/12/04 02:56:17;;;;;;;;;;;4.90;66.50;;;;;;4993808;28;20545;-79
2020/12/04 02:58:43;;;;;;;20.58;10.07;;;4.80;66.80;;;;;;4992525;28;19933;-79
2020/12/04 03:01:09;;;;;;;21.00;11.35;;;4.80;66.90;;;;;;4992436;28;20099;-79
2020/12/04 03:03:34;;;;;;;20.60;11.02;;;4.80;67.10;;;;;;4993959;28;20034;-79
2020/12/04 03:06:00;;;;;;;;;;;4.80;67.40;;;;;;4993654;28;20039;-79
2020/12/04 03:08:25;;;;;;;19.33;10.00;;;4.70;67.70;;;;;;4994561;28;19926;-78
2020/12/04 03:10:52;;;;;;;20.17;11.32;;;4.70;68.20;;;;;;4994459;28;20035;-79
2020/12/04 03:13:18;;;;;;;19.33;10.40;;;4.60;68.30;;;;;;4993994;28;20007;-79
2020/12/04 03:15:44;;;;;;;;;;;4.60;68.60;;;;;;4995914;28;20017;-79
2020/12/04 03:18:09;;;;;;;15.98;9.98;;;4.70;68.60;;;;;;4995193;28;19910;-79
2020/12/04 03:20:35;;;;;;;21.55;10.13;;;4.60;68.50;;;;;;4995491;28;20035;-79
2020/12/04 03:23:00;;;;;;;;;;;4.60;68.40;;;;;;4994034;28;20102;-79
2020/12/04 03:25:26;;;;;;;19.15;9.75;;;4.60;68.50;;;;;;4994267;28;19906;-79
2020/12/04 03:27:52;;;;;;;19.05;11.00;;;4.90;68.40;;;;;;4994057;28;20003;-79
2020/12/04 03:30:17;;;;;;;;;;;5.00;68.10;;;;;;4994101;28;20043;-78
2020/12/04 03:32:43;;;;;;;23.13;11.25;;;5.10;67.80;;;;;;4993917;28;19913;-80
2020/12/04 03:35:08;;;;;;;;;;;5.10;67.30;;;;;;4992110;28;20030;-79
2020/12/04 03:37:34;;;;;;;18.63;9.23;;;5.10;67.30;;;;;;4990481;28;20335;-79
2020/12/04 03:39:59;;;;;;;19.35;9.30;;;5.10;67.20;;;;;;4992176;28;20011;-79
2020/12/04 03:42:25;;;;;;;20.02;9.45;;;4.90;67.40;;;;;;4991421;28;20516;-79
2020/12/04 03:44:51;;;;;;;18.77;9.70;;;4.80;67.70;;;;;;4990002;28;20554;-79
2020/12/04 03:47:16;;;;;;;19.40;9.50;;;4.70;68.70;;;;;;4991437;28;20058;-79
2020/12/04 03:49:42;;;;;;;;;;;4.80;68.20;;;;;;4991334;28;20031;-79
2020/12/04 03:52:08;;;;;;;17.30;9.80;;;4.90;68.50;;;;;;4986885;28;19977;-79
2020/12/04 03:54:33;;;;;;;;;;;4.90;69.20;;;;;;4996482;28;20031;-79
2020/12/04 03:56:59;;;;;;;14.55;8.70;;;5.00;68.80;;;;;;4995706;28;19913;-79
2020/12/04 03:59:25;;;;;;;19.13;9.73;;;5.00;68.50;;;;;;4994249;28;20031;-80
2020/12/04 04:01:50;;;;;;;18.15;9.57;;;5.10;68.00;;;;;;4973510;28;20630;-79
2020/12/04 04:04:16;;;;;;;19.05;9.27;;;5.10;67.70;;;;;;4999470;28;20026;-80
2020/12/04 04:06:41;;;;;;;19.92;10.65;;;5.20;67.30;;;;;;4984176;28;20045;-79
2020/12/04 04:09:07;;;;;;;;;;;5.20;67.50;;;;;;4992672;28;20039;-78
2020/12/04 04:11:33;;;;;;;17.60;9.35;;;5.20;68.70;;;;;;4994204;28;19910;-79
2020/12/04 04:13:58;;;;;;;16.42;9.82;;;5.40;69.40;;;;;;4978046;28;20023;-79
2020/12/04 04:16:24;;;;;;;18.50;9.73;;;5.50;68.70;;;;;;4995511;28;20033;-79
2020/12/04 04:18:49;;;;;;;;;;;5.50;68.10;;;;;;4976311;28;20027;-78
2020/12/04 04:21:15;;;;;;;19.42;10.07;;;5.50;67.30;;;;;;4974853;28;19913;-79
2020/12/04 04:23:41;;;;;;;19.48;9.43;;;5.40;67.40;;;;;;4981613;28;20035;-77
2020/12/04 04:26:07;;;;;;;24.65;9.30;;;5.40;67.10;;;;;;4979061;28;20431;-78
2020/12/04 04:28:33;;;;;;;17.67;8.88;;;5.40;67.10;;;;;;4964063;28;20030;-78
2020/12/04 04:30:58;;;;;;;;;;;5.30;67.30;;;;;;4988902;28;20034;-79
2020/12/04 04:33:24;;;;;;;18.50;10.63;;;5.40;68.00;;;;;;4971606;28;19906;-79
2020/12/04 04:35:50;;;;;;;;;;;5.30;67.20;;;;;;4972356;28;20042;-81
2020/12/04 04:38:16;;;;;;;21.70;10.98;;;5.40;67.30;;;;;;4988891;28;19906;-79
2020/12/04 04:40:41;;;;;;;;;;;5.50;66.90;;;;;;4971910;28;20098;-79
2020/12/04 04:43:11;;;;;;;21.95;10.05;;;5.50;66.80;;;;;;4970604;28;19961;-79
2020/12/04 04:45:45;;;;;;;22.17;11.45;;;5.60;66.70;;;;;;4991740;28;20018;-79
2020/12/04 04:48:32;;;;;;;22.60;10.55;;;5.60;66.70;;;;;;4987728;28;20042;-79
2020/12/04 04:50:58;;;;;;;17.55;9.95;;;5.60;67.60;;;;;;4973432;28;20053;-78
2020/12/04 04:53:25;;;;;;;23.90;11.10;;;5.90;67.10;;;;;;4993640;28;20522;-79
2020/12/04 04:55:51;;;;;;;22.42;11.25;;;6.00;66.30;;;;;;4995238;28;20055;-79
2020/12/04 04:58:17;;;;;;;17.05;9.48;;;6.00;65.00;;;;;;4995104;28;20027;-79
2020/12/04 05:00:43;;;;;;;18.10;10.20;;;5.90;65.20;;;;;;4995904;28;20415;-79
2020/12/04 05:03:09;;;;;;;;;;;5.90;65.30;;;;;;4995705;28;20033;-78
2020/12/04 05:05:42;;;;;;;18.48;10.77;;;5.90;65.60;;;;;;4994000;28;19906;-79
2020/12/04 05:08:16;;;;;;;15.52;9.35;;;5.90;65.80;;;;;;4994043;28;20022;-79
2020/12/04 05:10:46;;;;;;;17.75;10.10;;;5.90;66.00;;;;;;4994747;28;20034;-80
2020/12/04 05:13:16;;;;;;;15.85;9.50;;;5.90;66.10;;;;;;4994126;28;20054;-79
2020/12/04 05:15:42;;;;;;;18.55;10.75;;;6.00;66.20;;;;;;4993708;28;20018;-78
2020/12/04 05:18:10;;;;;;;;;;;6.00;66.60;;;;;;4994320;28;20031;-79
2020/12/04 05:20:40;;;;;;;17.17;10.30;;;5.90;66.90;;;;;;4993683;28;20257;-79
2020/12/04 05:23:07;;;;;;;18.67;11.05;;;5.90;67.30;;;;;;4993328;28;20035;-79
2020/12/04 05:25:38;;;;;;;16.02;9.32;;;6.00;66.90;;;;;;4994532;28;20038;-79
2020/12/04 05:28:09;;;;;;;17.08;9.43;;;6.00;66.40;;;;;;4993774;28;20029;-78
2020/12/04 05:30:36;;;;;;;16.73;9.10;;;6.10;66.10;;;;;;4982128;28;20098;-78
2020/12/04 05:33:02;;;;;;;;;;;6.10;66.30;;;;;;4987229;28;20027;-79
2020/12/04 05:35:28;;;;;;;17.20;9.88;;;6.10;66.40;;;;;;4989867;28;19906;-79
2020/12/04 05:38:04;;;;;;;18.30;10.13;;;6.00;66.40;;;;;;4992386;28;20094;-78
2020/12/04 05:40:30;;;;;;;18.83;10.63;;;6.10;66.30;;;;;;4987927;28;20085;-78
2020/12/04 05:42:55;;;;;;;18.45;10.80;;;6.00;66.70;;;;;;4988848;28;20443;-79
2020/12/04 05:45:21;;;;;;;14.80;9.20;;;6.00;67.10;;;;;;4989485;28;20719;-80
2020/12/04 05:47:46;;;;;;;;;;;5.90;67.20;;;;;;4988828;28;20035;-79
2020/12/04 05:50:14;;;;;;;18.70;11.10;;;6.00;66.90;;;;;;4994265;28;19917;-78
2020/12/04 05:52:40;;;;;;;19.20;11.10;;;6.00;67.10;;;;;;4995156;28;20046;-79
2020/12/04 05:55:06;;;;;;;;;;;6.10;67.10;;;;;;4977984;28;20057;-79
2020/12/04 05:57:59;;;;;;;18.35;10.48;;;6.10;66.70;;;;;;4995915;28;19906;-79
2020/12/04 06:00:25;;;;;;;16.50;8.77;;;6.10;66.70;;;;;;4995957;28;20029;-78
2020/12/04 06:03:01;;;;;;;17.40;10.73;;;6.00;67.00;;;;;;4995334;28;20078;-79
2020/12/04 06:05:28;;;;;;;21.20;10.45;;;6.00;67.20;;;;;;4995860;28;20011;-79
2020/12/04 06:08:06;;;;;;;17.75;10.02;;;6.00;67.50;;;;;;4996052;28;20086;-79
2020/12/04 06:10:33;;;;;;;19.25;10.45;;;6.00;67.70;;;;;;4977303;28;20078;-79
2020/12/04 06:13:00;;;;;;;16.63;9.85;;;5.90;67.50;;;;;;4972926;28;20031;-81
2020/12/04 06:15:33;;;;;;;22.42;10.02;;;6.00;67.60;;;;;;4990582;28;20050;-78
2020/12/04 06:18:11;;;;;;;18.85;10.05;;;6.00;67.30;;;;;;4970792;28;20521;-79
2020/12/04 06:20:40;;;;;;;16.85;9.48;;;6.10;67.30;;;;;;4967924;28;20034;-78
2020/12/04 06:23:17;;;;;;;21.02;11.73;;;6.10;67.70;;;;;;4984130;28;20011;-80
2020/12/04 06:26:00;;;;;;;17.38;9.68;;;6.00;67.70;;;;;;4991746;28;20023;-79
2020/12/04 06:28:30;;;;;;;16.98;9.68;;;6.00;67.80;;;;;;4993816;28;20021;-80
2020/12/04 06:30:57;;;;;;;18.20;10.00;;;6.00;67.90;;;;;;4994563;28;20021;-79
2020/12/04 06:33:48;;;;;;;20.38;10.40;;;6.00;68.20;;;;;;4978095;28;20015;-79
2020/12/04 06:36:29;;;;;;;18.23;10.88;;;6.10;68.30;;;;;;4981168;28;20011;-80
2020/12/04 06:38:56;;;;;;;21.27;11.25;;;6.10;68.10;;;;;;4998527;28;20015;-79
2020/12/04 06:41:29;;;;;;;16.63;10.52;;;6.10;68.30;;;;;;4982513;28;20088;-79
2020/12/04 06:44:04;;;;;;;18.15;10.98;;;6.10;68.40;;;;;;4999692;28;20015;-80
2020/12/04 06:46:33;;;;;;;19.85;10.80;;;6.10;68.30;;;;;;4996875;28;20019;-79
2020/12/04 06:49:09;;;;;;;20.10;11.07;;;6.10;67.80;;;;;;4980664;28;20038;-80
2020/12/04 06:51:37;;;;;;;16.95;9.70;;;6.20;67.70;;;;;;4985367;28;20545;-77
2020/12/04 06:54:03;;;;;;;19.30;9.95;;;6.20;67.90;;;;;;4993446;28;20035;-79
2020/12/04 06:56:29;;;;;;;17.27;10.52;;;6.10;67.90;;;;;;4996139;28;20078;-79
2020/12/04 06:58:54;;;;;;;;;;;6.10;67.90;;;;;;4992953;28;20031;-80
2020/12/04 07:01:20;;;;;;;15.55;9.07;;;6.10;68.10;;;;;;4989383;28;19910;-79
2020/12/04 07:03:46;;;;;;;17.25;9.52;;;6.10;67.90;;;;;;4989976;28;20075;-78
2020/12/04 07:06:19;;;;;;;19.77;10.02;;;6.10;67.60;;;;;;4988067;28;20030;-79
2020/12/04 07:09:03;;;;;;;18.35;10.95;;;6.30;67.40;;;;;;4989514;28;20047;-79
2020/12/04 07:11:29;;;;;;;19.48;9.75;;;6.30;67.00;;;;;;4988904;28;20037;-78
2020/12/04 07:13:56;;;;;;;18.65;10.85;;;6.30;66.80;;;;;;4987079;28;20054;-78
2020/12/04 07:16:22;;;;;;;27.73;12.82;;;6.40;66.60;;;;;;4987120;28;20050;-78
2020/12/04 07:18:49;;;;;;;;;;;6.40;66.50;;;;;;4988235;28;20019;-79
2020/12/04 07:21:16;;;;;;;21.73;12.23;;;6.30;66.40;;;;;;4986303;28;19941;-79
2020/12/04 07:23:43;;;;;;;22.67;13.10;;;6.40;66.60;;;;;;4968135;29;20031;-79
2020/12/04 07:26:15;;;;;;;32.88;16.80;;;6.40;66.60;;;;;;4969320;28;20027;-79
2020/12/04 07:28:44;;;;;;;17.05;10.00;;;6.40;66.50;;;;;;4973204;29;20134;-79
2020/12/04 07:31:21;;;;;;;27.15;13.85;;;6.40;66.80;;;;;;4974887;28;20027;-79
2020/12/04 07:33:58;;;;;;;32.03;16.73;;;6.50;66.10;;;;;;4974119;29;20034;-79
2020/12/04 07:36:26;;;;;;;43.08;22.23;;;6.50;66.40;;;;;;4974830;29;20168;-79
2020/12/04 07:38:57;;;;;;;33.15;16.73;;;6.50;66.40;;;;;;4974122;29;20574;-78
2020/12/04 07:41:36;;;;;;;26.02;13.55;;;6.60;66.10;;;;;;4975075;28;20019;-79
2020/12/04 07:44:10;;;;;;;30.55;15.85;;;6.70;65.30;;;;;;4973300;28;20027;-79
2020/12/04 07:46:36;;;;;;;32.92;19.30;;;6.60;65.60;;;;;;4972133;28;20031;-79
2020/12/04 07:49:03;;;;;;;;;;;6.60;65.70;;;;;;4973775;29;20069;-79
2020/12/04 07:51:31;;;;;;;47.80;25.15;;;6.60;65.80;;;;;;4973747;28;19918;-79
2020/12/04 07:53:58;;;;;;;18.92;11.73;;;6.50;66.00;;;;;;4953644;29;20151;-79
2020/12/04 07:56:26;;;;;;;21.45;11.38;;;6.50;65.70;;;;;;4957119;29;20119;-79
2020/12/04 07:59:06;;;;;;;17.27;9.93;;;6.50;65.80;;;;;;4959620;29;20033;-79
2020/12/04 08:01:40;;;;;;;17.77;11.00;;;6.50;65.90;;;;;;4979792;28;20261;-79
2020/12/04 08:04:07;;;;;;;15.23;9.23;;;6.50;66.20;;;;;;4992793;28;20034;-78
2020/12/04 08:06:33;;;;;;;16.50;9.30;;;6.50;66.30;;;;;;4992602;28;20022;-79
2020/12/04 08:09:06;;;;;;;;;;;6.50;65.80;;;;;;4994464;28;20038;-80
2020/12/04 08:11:33;;;;;;;16.75;9.35;;;6.50;65.70;;;;;;4977548;28;19941;-78
2020/12/04 08:14:03;;;;;;;15.80;8.90;;;6.50;66.00;;;;;;4993586;28;20023;-79
2020/12/04 08:16:32;;;;;;;16.00;8.93;;;6.60;65.60;;;;;;4978255;28;20554;-79
2020/12/04 08:19:11;;;;;;;22.60;16.35;;;6.50;65.80;;;;;;4978172;28;20010;-80
2020/12/04 08:21:54;;;;;;;17.33;10.25;;;6.50;65.70;;;;;;4994547;28;20038;-79
2020/12/04 08:24:25;;;;;;;13.65;8.25;;;6.50;66.30;;;;;;4979121;28;20027;-79
2020/12/04 08:27:01;;;;;;;18.40;10.50;;;6.50;66.50;;;;;;4978462;28;20037;-78
2020/12/04 08:29:26;;;;;;;17.23;9.77;;;6.40;66.90;;;;;;4995800;28;20094;-79
2020/12/04 08:32:03;;;;;;;16.35;10.00;;;6.40;66.80;;;;;;4978284;28;20250;-79
2020/12/04 08:34:29;;;;;;;18.20;9.35;;;6.40;67.00;;;;;;4994856;28;20041;-79
2020/12/04 08:36:58;;;;;;;;;;;6.40;67.00;;;;;;4977517;28;20078;-79
2020/12/04 08:39:40;;;;;;;19.52;10.23;;;6.40;67.10;;;;;;4994422;28;19946;-79
2020/12/04 08:42:33;;;;;;;15.85;10.05;;;6.40;67.10;;;;;;4994936;28;20027;-79
2020/12/04 08:45:00;;;;;;;19.13;11.15;;;6.40;67.30;;;;;;4995259;28;20030;-79
2020/12/04 08:47:27;;;;;;;23.88;13.02;;;6.50;66.80;;;;;;4978499;28;20026;-79
2020/12/04 08:49:54;;;;;;;19.67;12.45;;;6.50;66.40;;;;;;4996434;28;20042;-79
2020/12/04 08:52:54;;;;;;;24.00;9.45;;;6.60;66.60;;;;;;4994031;28;20038;-79
2020/12/04 08:55:25;;;;;;;17.85;9.90;;;6.50;66.50;;;;;;4994686;28;20019;-79
2020/12/04 08:57:56;;;;;;;23.95;12.00;;;6.50;66.10;;;;;;4978296;28;20023;-78
2020/12/04 09:00:30;;;;;;;47.00;23.88;;;6.50;66.30;;;;;;4978214;28;20031;-79
2020/12/04 09:02:56;;;;;;;53.25;25.70;;;6.50;66.50;;;;;;4978071;28;20043;-79
2020/12/04 09:05:22;;;;;;;;;;;6.60;66.50;;;;;;4977842;28;20030;-79
2020/12/04 09:07:48;;;;;;;32.70;15.30;;;6.60;66.50;;;;;;4994748;28;19906;-79
2020/12/04 09:10:15;;;;;;;;;;;6.50;66.90;;;;;;4977856;28;20046;-79
2020/12/04 09:12:41;;;;;;;39.90;20.17;;;6.50;66.70;;;;;;4978915;28;19897;-79
2020/12/04 09:15:13;;;;;;;35.00;20.05;;;6.50;67.20;;;;;;4977872;28;20031;-79
2020/12/04 09:17:39;;;;;;;36.05;22.10;;;6.50;67.50;;;;;;4979950;28;20035;-80
2020/12/04 09:20:06;;;;;;;;;;;6.50;67.40;;;;;;4996352;28;20485;-79
2020/12/04 09:22:32;;;;;;;18.83;11.75;;;6.50;67.20;;;;;;4996179;28;19969;-79
2020/12/04 09:24:59;;;;;;;;;;;6.50;67.30;;;;;;4989087;28;20030;-79
2020/12/04 09:27:25;;;;;;;22.05;10.75;;;6.60;67.00;;;;;;4979411;28;19906;-79
2020/12/04 09:29:51;;;;;;;;;;;6.60;66.80;;;;;;4995801;28;20030;-79
2020/12/04 09:32:17;;;;;;;14.00;8.40;;;6.60;66.90;;;;;;4978059;28;19906;-79
2020/12/04 09:34:45;;;;;;;13.40;7.85;;;6.60;66.90;;;;;;4995731;28;20067;-79
2020/12/04 09:37:14;;;;;;;13.73;8.80;;;6.60;66.90;;;;;;4995815;28;20033;-79
2020/12/04 09:39:40;;;;;;;17.23;10.90;;;6.60;66.90;;;;;;4996409;28;20033;-79
2020/12/04 09:42:07;;;;;;;;;;;6.60;66.90;;;;;;4966578;28;20027;-79
2020/12/04 09:44:33;;;;;;;;;;;6.70;66.70;;;;;;4986745;28;19910;-80
2020/12/04 09:46:59;;;;;;;20.63;11.07;;;6.70;66.50;;;;;;4995341;28;19913;-79
2020/12/04 09:49:25;;;;;;;;;;;6.70;66.50;;;;;;4995712;28;20123;-79
2020/12/04 09:51:50;;;;;;;21.30;11.93;;;6.80;66.60;;;;;;4985998;28;19902;-79
2020/12/04 09:54:16;;;;;;;;;;;6.90;66.30;;;;;;4994212;28;20037;-78
2020/12/04 09:56:42;;;;;;;18.33;11.27;;;6.80;66.30;;;;;;4996818;28;19933;-79
2020/12/04 09:59:07;;;;;;;;;;;6.80;66.30;;;;;;4995622;28;20035;-79
2020/12/04 10:01:33;;;;;;;25.75;15.27;;;6.90;65.90;;;;;;4994932;28;19918;-78
2020/12/04 10:03:58;;;;;;;30.73;17.35;;;6.80;65.60;;;;;;4996325;28;20030;-79
2020/12/04 10:06:24;;;;;;;;;;;6.90;65.90;;;;;;4997954;28;20023;-80
2020/12/04 10:08:49;;;;;;;18.27;11.05;;;6.90;65.40;;;;;;4996908;28;19910;-79
2020/12/04 10:11:15;;;;;;;119.28;46.67;;;6.90;65.40;;;;;;4995070;28;20011;-78
2020/12/04 10:13:41;;;;;;;;;;;7.10;65.70;;;;;;4993122;28;20039;-79
2020/12/04 10:16:06;;;;;;;79.78;32.45;;;7.20;65.30;;;;;;4993442;28;19913;-79
2020/12/04 10:18:33;;;;;;;67.90;32.40;;;7.10;65.00;;;;;;4991765;28;20019;-79
2020/12/04 10:20:59;;;;;;;29.98;17.48;;;7.20;65.10;;;;;;4993232;28;20057;-79
2020/12/04 10:23:25;;;;;;;;;;;7.20;65.60;;;;;;4991565;28;20499;-79
2020/12/04 10:25:50;;;;;;;20.52;11.57;;;7.10;65.20;;;;;;4994558;28;19894;-79
2020/12/04 10:28:16;;;;;;;;;;;7.00;65.60;;;;;;4996891;28;20037;-79
2020/12/04 10:30:42;;;;;;;30.70;15.52;;;7.00;65.70;;;;;;4996068;28;19937;-80
2020/12/04 10:33:07;;;;;;;38.80;17.75;;;7.00;65.90;;;;;;4998443;28;20010;-79
2020/12/04 10:35:33;;;;;;;;;;;7.00;65.50;;;;;;4995084;28;20043;-78
2020/12/04 10:37:59;;;;;;;45.13;25.77;;;7.10;66.10;;;;;;4998990;28;19901;-80
2020/12/04 10:40:24;;;;;;;36.35;17.20;;;7.10;65.90;;;;;;4999035;28;20011;-78
2020/12/04 10:42:51;;;;;;;;;;;7.20;65.30;;;;;;4997978;28;20026;-79
2020/12/04 10:45:17;;;;;;;22.88;12.98;;;7.20;65.50;;;;;;5021915;23;19890;-78
2020/12/04 10:47:42;;;;;;;;;;;7.20;65.60;;;;;;4994479;28;20090;-79
2020/12/04 10:50:08;;;;;;;21.00;13.10;;;7.20;65.50;;;;;;4980210;28;19902;-79
2020/12/04 10:52:35;;;;;;;26.48;12.73;;;7.10;65.90;;;;;;4979165;28;20043;-79
2020/12/04 10:55:01;;;;;;;21.67;11.95;;;7.10;66.00;;;;;;4994995;28;20078;-78
2020/12/04 10:57:27;;;;;;;;;;;7.10;66.80;;;;;;4979188;28;20015;-79
2020/12/04 10:59:53;;;;;;;27.40;14.40;;;7.10;65.70;;;;;;4979243;28;19897;-79
2020/12/04 11:02:29;;;;;;;18.33;11.60;;;7.10;65.90;;;;;;4998150;28;20014;-80
2020/12/04 11:07:39;;;;;;;22.60;11.57;;;7.20;65.90;;;;;;5000005;28;20029;-78
2020/12/04 11:10:05;;;;;;;;;;;7.20;66.10;;;;;;4983546;28;20090;-80
2020/12/04 11:12:31;;;;;;;21.42;11.55;;;7.10;66.00;;;;;;5000398;28;19934;-79
2020/12/04 11:14:57;;;;;;;29.55;16.42;;;7.20;66.40;;;;;;4999523;28;20014;-79
2020/12/04 11:17:23;;;;;;;;;;;7.10;66.40;;;;;;4983591;28;20031;-79
2020/12/04 11:19:49;;;;;;;27.90;12.65;;;7.20;66.30;;;;;;4982900;28;19961;-79
2020/12/04 11:22:15;;;;;;;30.33;17.08;;;7.20;66.00;;;;;;4999864;28;20018;-79
2020/12/04 11:24:41;;;;;;;29.60;19.42;;;7.30;66.30;;;;;;4998723;28;20031;-79
2020/12/04 11:27:07;;;;;;;;;;;7.30;66.20;;;;;;5000323;28;20011;-79
2020/12/04 11:29:33;;;;;;;20.47;12.30;;;7.40;66.00;;;;;;4983940;28;19950;-79
2020/12/04 11:31:58;;;;;;;25.67;15.52;;;7.40;66.10;;;;;;5000129;28;20027;-80
2020/12/04 11:34:24;;;;;;;;;;;7.40;66.10;;;;;;4999993;28;20094;-80
2020/12/04 11:36:50;;;;;;;34.55;13.98;;;7.40;66.20;;;;;;4982572;28;19909;-79
2020/12/04 11:39:16;;;;;;;24.55;13.55;;;7.30;66.90;;;;;;4997844;28;20023;-79
2020/12/04 11:41:42;;;;;;;;;;;7.20;66.80;;;;;;4999070;28;20061;-79
2020/12/04 11:44:08;;;;;;;24.35;13.50;;;7.10;67.30;;;;;;4997471;28;19956;-79
2020/12/04 11:46:34;;;;;;;;;;;7.10;67.60;;;;;;4997112;28;20034;-79
2020/12/04 11:48:59;;;;;;;18.73;10.65;;;7.10;67.70;;;;;;4978460;28;19977;-79
2020/12/04 11:51:25;;;;;;;;;;;7.10;67.40;;;;;;4993524;28;20076;-80
2020/12/04 11:53:51;;;;;;;24.63;13.05;;;7.00;67.70;;;;;;4993801;28;19970;-79
2020/12/04 11:56:19;;;;;;;;;;;7.00;67.70;;;;;;4996774;28;20031;-79
2020/12/04 11:58:47;;;;;;;43.15;21.75;;;7.20;67.70;;;;;;4994992;28;20354;-79
2020/12/04 12:01:12;;;;;;;37.40;18.80;;;7.10;67.70;;;;;;4979137;28;20042;-79
2020/12/04 12:03:38;;;;;;;;;;;7.10;67.80;;;;;;4981890;28;20011;-80
2020/12/04 12:06:13;;;;;;;19.27;11.60;;;7.20;68.00;;;;;;4999179;28;19906;-80
2020/12/04 12:08:39;;;;;;;23.77;12.75;;;7.20;68.10;;;;;;5112902;23;20031;-76
2020/12/04 12:49:13;;;;;;;47.77;24.60;;;7.70;65.60;;;;;;5142573;27;20346;-75
2020/12/04 12:51:38;;;;;;;29.30;18.33;;;8.20;65.00;;;;;;5169721;27;20034;-78
2020/12/04 12:54:04;;;;;;;;;;;8.50;62.80;;;;;;5143080;28;20031;-74
2020/12/04 12:56:29;;;;;;;35.10;19.52;;;8.50;62.90;;;;;;5137407;28;19978;-77
2020/12/04 12:58:55;;;;;;;34.78;19.95;;;8.30;63.50;;;;;;5137104;27;20034;-77
2020/12/04 13:01:21;;;;;;;37.97;19.90;;;8.00;64.60;;;;;;5137908;28;20069;-77
2020/12/04 13:03:46;;;;;;;;;;;7.80;65.70;;;;;;5151990;27;20383;-76
2020/12/04 13:06:15;;;;;;;23.67;13.68;;;7.60;66.20;;;;;;5135507;28;19957;-77
2020/12/04 13:08:41;;;;;;;28.60;15.68;;;7.50;66.80;;;;;;5151164;27;20096;-76
2020/12/04 13:11:07;;;;;;;20.02;11.30;;;7.40;67.40;;;;;;5137382;27;20542;-77
2020/12/04 13:13:32;;;;;;;;;;;7.30;68.00;;;;;;5138239;27;20069;-77
2020/12/04 13:15:59;;;;;;;20.60;12.85;;;7.20;68.30;;;;;;5139945;28;19974;-76
2020/12/04 13:18:25;;;;;;;22.27;11.02;;;7.10;68.60;;;;;;5139024;27;20135;-76
2020/12/04 13:20:50;;;;;;;;;;;7.00;69.10;;;;;;5113779;28;20056;-75
2020/12/04 13:23:17;;;;;;;30.88;17.40;;;7.00;69.40;;;;;;5113765;28;20414;-78
2020/12/04 13:25:46;;;;;;;26.00;14.55;;;7.00;70.00;;;;;;5115769;28;20028;-77
2020/12/04 13:28:12;;;;;;;26.92;14.18;;;7.00;70.40;;;;;;5131753;28;20035;-77
2020/12/04 13:30:38;;;;;;;;;;;7.00;69.80;;;;;;5119458;28;20028;-77
2020/12/04 13:33:04;;;;;;;25.10;13.55;;;7.00;69.80;;;;;;5121270;28;19915;-77
2020/12/04 13:35:30;;;;;;;26.48;14.93;;;7.00;70.00;;;;;;5133012;28;20134;-76
2020/12/04 13:37:56;;;;;;;;;;;7.00;70.30;;;;;;5132047;28;20051;-78
2020/12/04 13:40:21;;;;;;;20.20;12.27;;;7.00;70.70;;;;;;5121248;28;20334;-78
2020/12/04 13:42:47;;;;;;;;;;;6.90;70.70;;;;;;5113468;28;20402;-76
2020/12/04 13:45:13;;;;;;;22.38;12.05;;;6.90;70.90;;;;;;5114941;28;19910;-77